Time;durP1;ratioP1;P1;durP2;ratioP2;P2;SDS_P1;SDS_P2;PMS_P1;PMS_P2;Temp;Humidity;BMP_temperature;BMP_pressure;BME280_temperature;BME280_humidity;BME280_pressure;Samples;Min_cycle;Max_cycle;Signal;HPM_P1;HPM_P2
2023/10/18 00:01:05;;;;;;;;;;;16.80;65.20;;;;;;5027796;27;89990;-46
2023/10/18 00:03:32;;;;;;;;;;;16.90;65.10;;;;;;5027816;27;90491;-43
2023/10/18 00:05:59;;;;;;;;;;;16.80;64.90;;;;;;5026438;27;89571;-42
2023/10/18 00:08:24;;;;;;;;;;;16.80;64.90;;;;;;5029526;27;89888;-43
2023/10/18 00:10:56;;;;;;;;;;;16.80;64.80;;;;;;5027629;27;91002;-45
2023/10/18 00:13:22;;;;;;;;;;;16.80;64.90;;;;;;5029604;27;89583;-45
2023/10/18 00:15:52;;;;;;;;;;;16.90;65.00;;;;;;5032971;27;90963;-41
2023/10/18 00:18:21;;;;;;;;;;;16.80;64.80;;;;;;5028422;27;90308;-42
2023/10/18 00:20:46;;;;;;;;;;;16.80;64.60;;;;;;5037582;27;91863;-42
2023/10/18 00:23:12;;;;;;;;;;;16.80;64.70;;;;;;5026888;27;89770;-41
2023/10/18 00:25:37;;;;;;;;;;;16.80;64.70;;;;;;5035001;27;90123;-44
2023/10/18 00:28:03;;;;;;;;;;;16.80;64.40;;;;;;5016679;27;92366;-40
2023/10/18 00:30:30;;;;;;;;;;;16.80;64.50;;;;;;5031829;27;90026;-44
2023/10/18 00:32:55;;;;;;;;;;;16.90;64.60;;;;;;5027760;27;89475;-41
2023/10/18 00:35:24;;;;;;;;;;;16.80;64.40;;;;;;5023705;27;89982;-42
2023/10/18 00:37:50;;;;;;;;;;;16.80;64.40;;;;;;5030257;27;91163;-42
2023/10/18 00:43:04;;;;;;;;;;;16.80;64.60;;;;;;5011487;27;89641;-44
2023/10/18 00:45:31;;;;;;;;;;;16.80;64.50;;;;;;5037016;27;90124;-44
2023/10/18 00:48:06;;;;;;;;;;;16.80;64.50;;;;;;5032003;27;92432;-43
2023/10/18 00:50:34;;;;;;;;;;;16.80;64.50;;;;;;5035184;27;91246;-42
2023/10/18 00:53:01;;;;;;;;;;;16.90;64.50;;;;;;5031470;27;90925;-42
2023/10/18 00:55:26;;;;;;;;;;;16.90;64.30;;;;;;5034378;27;92470;-43
2023/10/18 00:57:52;;;;;;;;;;;16.80;64.20;;;;;;5031398;27;89301;-45
2023/10/18 01:00:24;;;;;;;;;;;16.80;64.30;;;;;;5037594;27;90704;-43
2023/10/18 01:02:52;;;;;;;;;;;16.80;64.20;;;;;;5008750;27;89647;-43
2023/10/18 01:05:18;;;;;;;;;;;16.80;64.20;;;;;;5029635;27;90826;-41
2023/10/18 01:07:46;;;;;;;;;;;16.80;64.30;;;;;;5012060;27;90651;-44
2023/10/18 01:10:12;;;;;;;;;;;16.80;64.10;;;;;;5031612;27;89531;-41
2023/10/18 01:12:38;;;;;;;;;;;16.80;64.10;;;;;;5032813;27;89986;-43
2023/10/18 01:15:06;;;;;;;;;;;16.80;64.00;;;;;;5033559;27;89711;-40
2023/10/18 01:17:42;;;;;;;;;;;16.80;64.00;;;;;;5035707;27;90267;-43
2023/10/18 01:22:52;;;;;;;;;;;16.80;64.80;;;;;;5034508;27;90759;-43
2023/10/18 01:25:18;;;;;;;;;;;16.80;64.00;;;;;;5030999;27;93813;-41
2023/10/18 01:27:45;;;;;;;;;;;16.70;64.00;;;;;;5030930;27;89386;-41
2023/10/18 01:30:14;;;;;;;;;;;16.70;64.00;;;;;;5030473;27;93005;-41
2023/10/18 01:32:40;;;;;;;;;;;16.70;64.10;;;;;;5028897;27;89609;-40
2023/10/18 01:35:05;;;;;;;;;;;16.70;64.10;;;;;;5038023;27;89899;-42
2023/10/18 01:37:31;;;;;;;;;;;16.70;64.00;;;;;;5036055;27;89692;-42
2023/10/18 01:40:12;;;;;;;;;;;16.70;64.00;;;;;;5034937;27;89519;-42
2023/10/18 01:42:43;;;;;;;;;;;16.70;64.00;;;;;;5029258;27;90384;-42
2023/10/18 01:45:09;;;;;;;;;;;16.70;64.00;;;;;;5025337;27;89912;-42
2023/10/18 01:47:35;;;;;;;;;;;16.70;64.10;;;;;;5030460;27;89510;-42
2023/10/18 01:50:01;;;;;;;;;;;16.70;64.10;;;;;;5031368;27;89933;-42
2023/10/18 01:52:29;;;;;;;;;;;16.70;64.10;;;;;;5030897;27;89577;-41
2023/10/18 01:54:54;;;;;;;;;;;16.70;64.00;;;;;;5041146;27;90439;-40
2023/10/18 01:57:20;;;;;;;;;;;16.70;64.00;;;;;;5032359;27;91053;-42
2023/10/18 01:59:49;;;;;;;;;;;16.70;64.00;;;;;;5031745;27;89519;-38
2023/10/18 02:02:15;;;;;;;;;;;16.70;63.80;;;;;;5031331;27;91417;-39
2023/10/18 02:04:41;;;;;;;;;;;16.70;64.00;;;;;;5032907;27;89564;-39
2023/10/18 02:07:07;;;;;;;;;;;16.70;64.70;;;;;;5038187;27;89837;-39
2023/10/18 02:09:41;;;;;;;;;;;16.70;64.10;;;;;;5037306;27;90546;-39
2023/10/18 02:12:08;;;;;;;;;;;16.70;64.10;;;;;;5028468;27;90313;-38
2023/10/18 02:14:33;;;;;;;;;;;16.70;63.90;;;;;;5029175;27;89963;-39
2023/10/18 02:16:59;;;;;;;;;;;16.70;64.00;;;;;;5034362;27;90435;-39
2023/10/18 02:19:26;;;;;;;;;;;16.70;64.00;;;;;;5033582;27;90940;-39
2023/10/18 02:21:52;;;;;;;;;;;16.70;63.90;;;;;;5037524;27;89949;-38
2023/10/18 02:24:18;;;;;;;;;;;16.70;63.90;;;;;;5033630;27;89017;-38
2023/10/18 02:26:56;;;;;;;;;;;16.70;63.80;;;;;;5032348;27;89446;-38
2023/10/18 02:29:22;;;;;;;;;;;16.70;63.80;;;;;;5032085;27;89539;-47
2023/10/18 02:31:49;;;;;;;;;;;16.70;63.80;;;;;;5039326;27;90356;-47
2023/10/18 02:34:14;;;;;;;;;;;16.70;63.80;;;;;;5035342;27;90318;-47
2023/10/18 02:36:46;;;;;;;;;;;16.70;63.80;;;;;;5032000;27;91949;-47
2023/10/18 02:39:13;;;;;;;;;;;16.70;63.90;;;;;;5035434;27;89510;-47
2023/10/18 02:41:39;;;;;;;;;;;16.70;63.70;;;;;;5026674;27;92156;-47
2023/10/18 02:44:21;;;;;;;;;;;16.70;63.80;;;;;;5033158;27;91667;-47
2023/10/18 02:46:48;;;;;;;;;;;16.60;63.70;;;;;;5036221;27;90454;-47
2023/10/18 02:49:14;;;;;;;;;;;16.60;63.70;;;;;;5032951;27;96856;-48
2023/10/18 02:51:40;;;;;;;;;;;16.60;63.70;;;;;;5033443;27;89464;-47
2023/10/18 02:54:19;;;;;;;;;;;16.60;63.70;;;;;;5027649;27;91515;-47
2023/10/18 02:56:50;;;;;;;;;;;16.60;63.70;;;;;;5039307;27;90557;-47
2023/10/18 02:59:17;;;;;;;;;;;16.60;63.60;;;;;;5029587;27;90088;-46
2023/10/18 03:01:43;;;;;;;;;;;16.60;63.70;;;;;;5032390;27;90464;-47
2023/10/18 03:04:11;;;;;;;;;;;16.60;63.60;;;;;;5031236;27;90752;-47
2023/10/18 03:06:37;;;;;;;;;;;16.70;63.70;;;;;;5034628;27;89967;-46
2023/10/18 03:09:03;;;;;;;;;;;16.70;63.60;;;;;;5033731;27;90735;-39
2023/10/18 03:11:31;;;;;;;;;;;16.70;63.70;;;;;;5029617;27;92638;-39
2023/10/18 03:13:57;;;;;;;;;;;16.70;63.80;;;;;;5027235;27;90085;-38
2023/10/18 03:19:11;;;;;;;;;;;16.60;63.70;;;;;;5030850;27;89803;-38
2023/10/18 03:21:37;;;;;;;;;;;16.60;63.80;;;;;;5029053;27;89987;-38
2023/10/18 03:24:04;;;;;;;;;;;16.60;63.60;;;;;;5029172;27;90075;-38
2023/10/18 03:26:35;;;;;;;;;;;16.60;63.70;;;;;;5024320;27;89847;-38
2023/10/18 03:29:16;;;;;;;;;;;16.60;63.80;;;;;;5038088;27;90213;-38
2023/10/18 03:31:43;;;;;;;;;;;16.60;63.60;;;;;;5031449;27;90066;-37
2023/10/18 03:34:16;;;;;;;;;;;16.60;63.70;;;;;;5029617;27;91186;-38
2023/10/18 03:37:00;;;;;;;;;;;16.60;63.60;;;;;;5017505;27;90653;-37
2023/10/18 03:39:47;;;;;;;;;;;16.60;63.70;;;;;;5036297;27;90990;-37
2023/10/18 03:42:26;;;;;;;;;;;16.60;63.60;;;;;;5022504;27;90020;-38
2023/10/18 03:44:51;;;;;;;;;;;16.60;63.50;;;;;;5033176;27;89518;-38
2023/10/18 03:47:24;;;;;;;;;;;16.60;63.50;;;;;;5030496;27;90915;-38
2023/10/18 03:49:53;;;;;;;;;;;16.60;63.60;;;;;;5030727;27;89505;-38
2023/10/18 03:52:18;;;;;;;;;;;16.60;63.60;;;;;;5029892;27;88625;-37
2023/10/18 03:54:45;;;;;;;;;;;16.60;63.60;;;;;;5031859;27;89531;-39
2023/10/18 03:57:18;;;;;;;;;;;16.60;63.50;;;;;;5028247;27;90775;-38
2023/10/18 03:59:45;;;;;;;;;;;16.60;63.60;;;;;;5029404;27;90673;-38
2023/10/18 04:04:48;;;;;;;;;;;16.60;63.60;;;;;;5030802;27;90847;-38
2023/10/18 04:07:19;;;;;;;;;;;16.60;63.60;;;;;;5028215;27;91519;-38
2023/10/18 04:10:12;;;;;;;;;;;16.60;63.70;;;;;;5030699;27;89661;-37
2023/10/18 04:12:40;;;;;;;;;;;16.50;63.70;;;;;;5029778;27;89496;-38
2023/10/18 04:15:21;;;;;;;;;;;16.60;63.80;;;;;;5030415;27;90336;-38
2023/10/18 04:17:49;;;;;;;;;;;16.50;63.60;;;;;;5033056;27;91199;-43
2023/10/18 04:22:46;;;;;;;;;;;16.50;63.70;;;;;;5041370;27;89499;-40
2023/10/18 04:25:31;;;;;;;;;;;16.50;63.80;;;;;;5037902;27;90403;-41
2023/10/18 04:28:00;;;;;;;;;;;16.60;63.80;;;;;;5028648;27;91499;-42
2023/10/18 04:30:29;;;;;;;;;;;16.50;63.80;;;;;;5026881;27;89485;-40
2023/10/18 04:32:59;;;;;;;;;;;16.60;63.70;;;;;;5037404;27;91731;-41
2023/10/18 04:35:36;;;;;;;;;;;16.50;63.70;;;;;;5039027;27;89607;-42
2023/10/18 04:38:20;;;;;;;;;;;16.50;63.80;;;;;;5039381;27;89928;-43
2023/10/18 04:40:55;;;;;;;;;;;16.60;63.80;;;;;;5029456;27;90902;-42
2023/10/18 04:43:25;;;;;;;;;;;16.50;63.70;;;;;;5036328;27;90974;-42
2023/10/18 04:45:58;;;;;;;;;;;16.50;63.80;;;;;;5038140;27;93256;-43
2023/10/18 04:48:59;;;;;;;;;;;16.50;63.90;;;;;;5032512;27;90699;-41
2023/10/18 04:51:10;;;;;;;;;;;16.50;63.80;;;;;;5034104;27;91169;-43
2023/10/18 04:53:35;;;;;;;;;;;16.50;63.80;;;;;;5037391;27;90739;-42
2023/10/18 04:56:02;;;;;;;;;;;16.50;63.70;;;;;;5032364;27;90088;-40
2023/10/18 04:58:29;;;;;;;;;;;16.50;63.60;;;;;;5037737;27;92399;-41
2023/10/18 05:01:01;;;;;;;;;;;16.50;63.80;;;;;;5035550;27;89905;-40
2023/10/18 05:03:32;;;;;;;;;;;16.50;63.80;;;;;;5039075;27;90075;-41
2023/10/18 05:05:58;;;;;;;;;;;16.50;63.70;;;;;;5027170;27;90011;-42
2023/10/18 05:08:23;;;;;;;;;;;16.50;63.60;;;;;;5035412;27;90479;-42
2023/10/18 05:10:52;;;;;;;;;;;16.50;63.70;;;;;;5026767;27;90230;-42
2023/10/18 05:13:33;;;;;;;;;;;16.50;63.60;;;;;;5018732;27;89722;-41
2023/10/18 05:15:59;;;;;;;;;;;16.50;63.70;;;;;;5030017;27;92518;-43
2023/10/18 05:18:25;;;;;;;;;;;16.50;63.80;;;;;;5027869;27;91139;-41
2023/10/18 05:23:23;;;;;;;;;;;16.40;63.80;;;;;;5032120;27;90631;-41
2023/10/18 05:28:47;;;;;;;;;;;16.50;64.10;;;;;;5042747;27;95047;-41
2023/10/18 05:34:22;;;;;;;;;;;16.40;64.00;;;;;;5035874;27;89348;-41
2023/10/18 05:41:51;;;;;;;;;;;16.40;64.10;;;;;;5035992;27;91004;-42
2023/10/18 05:44:17;;;;;;;;;;;16.50;64.10;;;;;;5044173;27;90261;-40
2023/10/18 05:46:44;;;;;;;;;;;16.40;64.10;;;;;;5036404;27;90248;-41
2023/10/18 05:49:16;;;;;;;;;;;16.40;64.20;;;;;;5034592;27;90019;-41
2023/10/18 05:51:53;;;;;;;;;;;16.40;64.10;;;;;;5036600;27;92904;-40
2023/10/18 05:54:19;;;;;;;;;;;16.40;64.10;;;;;;5033766;27;94171;-39
2023/10/18 05:56:49;;;;;;;;;;;16.40;64.20;;;;;;5030944;27;89934;-42
2023/10/18 05:59:27;;;;;;;;;;;16.40;64.30;;;;;;5035628;27;88800;-43
2023/10/18 06:01:54;;;;;;;;;;;16.40;64.60;;;;;;5031001;27;91169;-42
2023/10/18 06:04:25;;;;;;;;;;;16.40;64.40;;;;;;5033213;27;90225;-43
2023/10/18 06:06:51;;;;;;;;;;;16.40;64.40;;;;;;5029109;27;91063;-40
2023/10/18 06:09:26;;;;;;;;;;;16.40;64.40;;;;;;5036377;27;90189;-40
2023/10/18 06:11:52;;;;;;;;;;;16.40;64.40;;;;;;5036385;27;90420;-41
2023/10/18 06:14:18;;;;;;;;;;;16.40;64.30;;;;;;5025374;27;90562;-43
2023/10/18 06:16:51;;;;;;;;;;;16.40;64.40;;;;;;5032315;27;90374;-41
2023/10/18 06:19:22;;;;;;;;;;;16.40;65.00;;;;;;5022763;27;90977;-41
2023/10/18 06:21:57;;;;;;;;;;;16.40;64.90;;;;;;5025231;27;91810;-43
2023/10/18 06:24:25;;;;;;;;;;;16.40;64.90;;;;;;5043016;27;90163;-43
2023/10/18 06:26:52;;;;;;;;;;;16.40;64.90;;;;;;5038163;27;90340;-44
2023/10/18 06:29:31;;;;;;;;;;;16.30;65.00;;;;;;5039640;27;89925;-40
2023/10/18 06:31:56;;;;;;;;;;;16.40;65.30;;;;;;5022795;27;91001;-39
2023/10/18 06:34:26;;;;;;;;;;;16.60;65.60;;;;;;5025783;27;89713;-43
2023/10/18 06:36:52;;;;;;;;;;;16.80;66.00;;;;;;5035758;27;89866;-40
2023/10/18 06:39:37;;;;;;;;;;;16.80;65.80;;;;;;5026716;27;89515;-42
2023/10/18 06:42:06;;;;;;;;;;;16.90;65.70;;;;;;5024355;27;90832;-40
2023/10/18 06:44:33;;;;;;;;;;;16.80;64.80;;;;;;5029252;27;94180;-45
2023/10/18 06:47:01;;;;;;;;;;;16.80;65.10;;;;;;5028058;27;92224;-40
2023/10/18 06:49:29;;;;;;;;;;;16.90;65.60;;;;;;5038489;27;88853;-42
2023/10/18 06:51:56;;;;;;;;;;;17.00;66.00;;;;;;5037869;27;90050;-39
2023/10/18 06:54:38;;;;;;;;;;;17.10;66.20;;;;;;5026294;27;90693;-39
2023/10/18 06:57:37;;;;;;;;;;;17.10;65.80;;;;;;5036628;27;90411;-38
2023/10/18 06:59:56;;;;;;;;;;;17.10;65.90;;;;;;5029700;27;89886;-38
2023/10/18 07:02:27;;;;;;;;;;;17.20;66.20;;;;;;5030842;27;90293;-38
2023/10/18 07:04:56;;;;;;;;;;;17.20;65.80;;;;;;5027395;27;91072;-41
2023/10/18 07:07:23;;;;;;;;;;;17.20;65.70;;;;;;5019945;27;89982;-46
2023/10/18 07:09:52;;;;;;;;;;;17.30;65.50;;;;;;5037850;27;93379;-46
2023/10/18 07:12:19;;;;;;;;;;;17.30;65.00;;;;;;5014807;27;89848;-42
2023/10/18 07:14:45;;;;;;;;;;;17.30;64.70;;;;;;5033580;27;91519;-43
2023/10/18 07:17:11;;;;;;;;;;;17.30;65.30;;;;;;5010052;27;92454;-39
2023/10/18 07:19:49;;;;;;;;;;;17.40;65.30;;;;;;5030039;27;91133;-38
2023/10/18 07:22:18;;;;;;;;;;;17.40;65.20;;;;;;5021772;27;91487;-42
2023/10/18 07:24:51;;;;;;;;;;;17.50;65.40;;;;;;5032251;27;89695;-39
2023/10/18 07:27:17;;;;;;;;;;;17.50;65.00;;;;;;5034608;27;89797;-42
2023/10/18 07:29:46;;;;;;;;;;;17.50;64.30;;;;;;5035742;27;90304;-38
2023/10/18 07:32:15;;;;;;;;;;;17.50;64.20;;;;;;5028826;27;89568;-40
2023/10/18 07:34:42;;;;;;;;;;;17.50;64.40;;;;;;5025327;27;89511;-40
2023/10/18 07:38:08;;;;;;;;;;;17.50;63.80;;;;;;5025089;27;91602;-40
2023/10/18 07:40:08;;;;;;;;;;;17.60;64.40;;;;;;5008142;27;88901;-41
2023/10/18 07:42:41;;;;;;;;;;;17.60;64.00;;;;;;5016789;27;96450;-40
2023/10/18 07:45:08;;;;;;;;;;;17.60;64.10;;;;;;5024938;27;90098;-42
2023/10/18 07:47:37;;;;;;;;;;;17.60;64.10;;;;;;5027275;27;92450;-41
2023/10/18 07:52:55;;;;;;;;;;;17.70;63.20;;;;;;5033651;27;92665;-38
2023/10/18 07:55:23;;;;;;;;;;;17.70;63.30;;;;;;5029545;27;89577;-39
2023/10/18 07:57:49;;;;;;;;;;;17.70;63.60;;;;;;5014391;27;91657;-40
2023/10/18 08:00:21;;;;;;;;;;;17.70;63.90;;;;;;5033830;27;89523;-41
2023/10/18 08:02:47;;;;;;;;;;;17.70;63.60;;;;;;5000532;27;90369;-39
2023/10/18 08:05:18;;;;;;;;;;;17.80;63.40;;;;;;5033082;27;90485;-40
2023/10/18 08:07:49;;;;;;;;;;;17.80;63.30;;;;;;5004368;27;89551;-41
2023/10/18 08:10:19;;;;;;;;;;;17.80;63.30;;;;;;5027345;27;90180;-39
2023/10/18 08:13:10;;;;;;;;;;;17.80;63.10;;;;;;5025354;27;91679;-39
2023/10/18 08:15:36;;;;;;;;;;;17.80;63.60;;;;;;5025310;27;90168;-40
2023/10/18 08:18:15;;;;;;;;;;;17.90;64.20;;;;;;5031559;27;91274;-41
2023/10/18 08:20:55;;;;;;;;;;;17.90;64.00;;;;;;5031374;27;90568;-44
2023/10/18 08:25:51;;;;;;;;;;;17.90;63.80;;;;;;5025316;27;89840;-40
2023/10/18 08:28:19;;;;;;;;;;;17.90;64.00;;;;;;5026092;27;90842;-41
2023/10/18 08:33:10;;;;;;;;;;;18.00;64.50;;;;;;5031922;27;96599;-40
2023/10/18 08:35:36;;;;;;;;;;;18.00;64.50;;;;;;5028808;27;89603;-41
2023/10/18 08:38:02;;;;;;;;;;;18.00;64.20;;;;;;5025674;27;90494;-46
2023/10/18 08:40:36;;;;;;;;;;;18.10;64.60;;;;;;5027664;27;89321;-43
2023/10/18 08:43:23;;;;;;;;;;;18.10;64.40;;;;;;5030071;27;89422;-41
2023/10/18 08:45:50;;;;;;;;;;;18.20;64.40;;;;;;5025379;27;92088;-39
2023/10/18 08:48:21;;;;;;;;;;;18.10;64.30;;;;;;5016728;27;90532;-41
2023/10/18 08:50:48;;;;;;;;;;;18.10;64.10;;;;;;5029135;27;89642;-41
2023/10/18 08:53:15;;;;;;;;;;;18.10;64.00;;;;;;5030003;27;93642;-39
2023/10/18 08:55:44;;;;;;;;;;;18.20;64.20;;;;;;5023442;27;89356;-40
2023/10/18 08:58:17;;;;;;;;;;;18.20;64.30;;;;;;5025675;27;90012;-40
2023/10/18 09:03:13;;;;;;;;;;;18.20;64.10;;;;;;5027103;27;92067;-39
2023/10/18 09:05:40;;;;;;;;;;;18.10;64.00;;;;;;5030605;27;89416;-39
2023/10/18 09:08:07;;;;;;;;;;;18.20;64.00;;;;;;5020964;27;90964;-39
2023/10/18 09:18:24;;;;;;;;;;;18.10;64.60;;;;;;5028847;27;89658;-40
2023/10/18 09:20:50;;;;;;;;;;;18.10;64.80;;;;;;5030683;27;89805;-41
2023/10/18 09:23:21;;;;;;;;;;;18.20;65.00;;;;;;5030149;22;93483;-73
2023/10/18 09:26:10;;;;;;;;;;;18.20;65.60;;;;;;4996151;27;89658;-71
2023/10/18 09:28:36;;;;;;;;;;;18.20;66.10;;;;;;5007346;27;95613;-72
2023/10/18 09:31:16;;;;;;;;;;;18.20;66.40;;;;;;4999465;27;90168;-73
2023/10/18 09:33:58;;;;;;;;;;;18.20;66.80;;;;;;5011785;27;90015;-74
2023/10/18 09:36:27;;;;;;;;;;;18.20;67.00;;;;;;4989817;27;89402;-76
2023/10/18 09:38:54;;;;;;;;;;;18.30;67.30;;;;;;5003512;27;92687;-75
2023/10/18 09:41:21;;;;;;;;;;;18.30;68.00;;;;;;5017559;27;89064;-75
2023/10/18 09:43:47;;;;;;;;;;;18.30;68.30;;;;;;5013346;27;93866;-76
2023/10/18 09:46:13;;;;;;;;;;;18.30;68.30;;;;;;5014850;27;88425;-76
2023/10/18 09:48:45;;;;;;;;;;;18.30;68.30;;;;;;5013074;27;90121;-76
2023/10/18 09:51:15;;;;;;;;;;;18.30;68.10;;;;;;5017477;27;89524;-77
2023/10/18 09:53:51;;;;;;;;;;;18.30;67.90;;;;;;5011862;27;91916;-76
2023/10/18 09:56:33;;;;;;;;;;;18.40;67.90;;;;;;5002291;27;89936;-70
2023/10/18 09:59:05;;;;;;;;;;;18.40;68.00;;;;;;5029532;22;91362;-39
2023/10/18 10:04:09;;;;;;;;;;;18.60;67.90;;;;;;5009608;27;90045;-39
2023/10/18 10:06:35;;;;;;;;;;;18.60;67.30;;;;;;5007788;28;90102;-39
2023/10/18 10:09:14;;;;;;;;;;;18.50;67.40;;;;;;5012349;27;90152;-39
2023/10/18 10:11:43;;;;;;;;;;;18.60;67.10;;;;;;5018179;27;89443;-39
2023/10/18 10:14:09;;;;;;;;;;;18.60;67.10;;;;;;5017306;27;90667;-38
2023/10/18 10:16:36;;;;;;;;;;;18.60;66.80;;;;;;5011141;27;90250;-39
2023/10/18 10:19:04;;;;;;;;;;;18.50;66.60;;;;;;5014529;27;90628;-40
2023/10/18 10:21:34;;;;;;;;;;;18.60;66.40;;;;;;5015855;28;89387;-39
2023/10/18 10:24:06;;;;;;;;;;;18.60;65.80;;;;;;5005627;27;90173;-42
2023/10/18 10:26:35;;;;;;;;;;;18.60;66.00;;;;;;4989941;28;89880;-39
2023/10/18 10:31:50;;;;;;;;;;;18.70;65.10;;;;;;4974601;28;93418;-38
2023/10/18 10:34:24;;;;;;;;;;;18.70;65.20;;;;;;4990017;28;89733;-40
2023/10/18 10:36:53;;;;;;;;;;;18.70;65.30;;;;;;4994615;28;89653;-40
2023/10/18 10:39:23;;;;;;;;;;;18.70;65.00;;;;;;4988934;28;89542;-38
2023/10/18 10:41:49;;;;;;;;;;;18.70;64.90;;;;;;4987685;28;90470;-43
2023/10/18 10:44:22;;;;;;;;;;;18.80;65.50;;;;;;4988844;28;90520;-42
2023/10/18 10:46:50;;;;;;;;;;;18.80;65.70;;;;;;4989854;28;89549;-43
2023/10/18 10:49:45;;;;;;;;;;;18.80;65.90;;;;;;4993959;28;89958;-44
2023/10/18 10:52:10;;;;;;;;;;;18.80;65.30;;;;;;4940274;28;89849;-41
2023/10/18 10:54:46;;;;;;;;;;;18.90;65.10;;;;;;4993772;28;90002;-43
2023/10/18 10:57:14;;;;;;;;;;;18.90;64.80;;;;;;4997842;28;89461;-40
2023/10/18 10:59:49;;;;;;;;;;;18.90;65.10;;;;;;4993005;28;90181;-41
2023/10/18 11:02:24;;;;;;;;;;;19.00;65.00;;;;;;4993067;28;88823;-40
2023/10/18 11:04:50;;;;;;;;;;;18.90;65.10;;;;;;4993278;28;90356;-39
2023/10/18 11:07:27;;;;;;;;;;;18.90;65.30;;;;;;4993053;28;89618;-40
2023/10/18 11:10:14;;;;;;;;;;;18.90;65.40;;;;;;4991880;28;91955;-40
2023/10/18 11:12:40;;;;;;;;;;;18.90;65.80;;;;;;4972494;28;90552;-39
2023/10/18 11:15:09;;;;;;;;;;;18.90;65.40;;;;;;4991922;28;89926;-40
2023/10/18 11:17:37;;;;;;;;;;;18.90;64.70;;;;;;4989294;28;89841;-40
2023/10/18 11:20:17;;;;;;;;;;;18.90;63.90;;;;;;5057862;22;89425;-83
2023/10/18 11:22:50;;;;;;;;;;;18.90;64.50;;;;;;5024101;28;92145;-86
2023/10/18 11:25:19;;;;;;;;;;;18.80;64.90;;;;;;5048791;28;88489;-89
2023/10/18 11:27:45;;;;;;;;;;;18.80;65.00;;;;;;5029905;28;87982;-85
2023/10/18 11:30:22;;;;;;;;;;;18.90;65.10;;;;;;5023840;28;91823;-85
2023/10/18 11:32:56;;;;;;;;;;;18.90;65.10;;;;;;5012256;28;91835;-86
2023/10/18 11:38:09;;;;;;;;;;;18.90;65.30;;;;;;5052122;28;88518;-90
2023/10/18 11:40:40;;;;;;;;;;;19.00;65.40;;;;;;5024832;28;92525;-86
2023/10/18 11:43:09;;;;;;;;;;;19.00;65.30;;;;;;5012318;22;92063;-45
2023/10/18 11:45:36;;;;;;;;;;;19.00;65.20;;;;;;4973790;28;94128;-46
2023/10/18 11:48:02;;;;;;;;;;;19.00;65.20;;;;;;4979290;28;90064;-48
2023/10/18 11:50:41;;;;;;;;;;;19.00;65.50;;;;;;4984160;28;90321;-40
2023/10/18 11:53:07;;;;;;;;;;;19.00;65.30;;;;;;4983172;28;88827;-40
2023/10/18 11:55:33;;;;;;;;;;;19.10;65.80;;;;;;4984521;28;90669;-44
2023/10/18 11:58:07;;;;;;;;;;;19.10;65.70;;;;;;4986142;28;89824;-42
2023/10/18 12:00:35;;;;;;;;;;;19.20;65.50;;;;;;4980954;28;92663;-43
2023/10/18 12:03:03;;;;;;;;;;;19.20;64.50;;;;;;4990752;28;89603;-39
2023/10/18 12:05:28;;;;;;;;;;;19.20;64.90;;;;;;4981299;28;92067;-46
2023/10/18 12:08:01;;;;;;;;;;;19.10;65.00;;;;;;4988622;28;90356;-40
2023/10/18 12:10:34;;;;;;;;;;;19.10;65.10;;;;;;4995773;28;90952;-41
2023/10/18 12:13:02;;;;;;;;;;;19.10;65.40;;;;;;4987457;28;93876;-41
2023/10/18 12:15:30;;;;;;;;;;;19.10;65.70;;;;;;5001103;22;90790;-73
2023/10/18 12:17:56;;;;;;;;;;;19.20;65.70;;;;;;5003582;27;88595;-72
2023/10/18 12:20:34;;;;;;;;;;;19.20;65.60;;;;;;4999488;27;90837;-72
2023/10/18 12:23:04;;;;;;;;;;;19.30;65.50;;;;;;5008798;27;91290;-75
2023/10/18 12:25:32;;;;;;;;;;;19.30;65.60;;;;;;5009054;27;90284;-73
2023/10/18 12:28:00;;;;;;;;;;;19.30;65.50;;;;;;4986806;28;90253;-71
2023/10/18 12:30:34;;;;;;;;;;;19.30;65.60;;;;;;5007182;27;89777;-72
2023/10/18 12:33:05;;;;;;;;;;;19.30;65.70;;;;;;5004354;27;89843;-71
2023/10/18 12:35:30;;;;;;;;;;;19.40;65.80;;;;;;5008219;27;90100;-70
2023/10/18 12:37:56;;;;;;;;;;;19.30;65.00;;;;;;4979409;22;92815;-38
2023/10/18 12:40:28;;;;;;;;;;;19.40;65.90;;;;;;4975376;28;93147;-38
2023/10/18 12:43:06;;;;;;;;;;;19.40;66.60;;;;;;4981421;28;89544;-38
2023/10/18 12:45:42;;;;;;;;;;;19.40;66.30;;;;;;4975146;28;93247;-38
2023/10/18 12:48:10;;;;;;;;;;;19.40;66.70;;;;;;4974914;28;91940;-38
2023/10/18 12:50:36;;;;;;;;;;;19.40;67.30;;;;;;4980688;28;90665;-38
2023/10/18 12:53:17;;;;;;;;;;;19.40;67.50;;;;;;4968597;28;90771;-39
2023/10/18 12:55:44;;;;;;;;;;;19.40;67.30;;;;;;4972337;28;90114;-38
2023/10/18 12:58:10;;;;;;;;;;;19.20;66.30;;;;;;4977828;28;94238;-38
2023/10/18 13:00:44;;;;;;;;;;;19.10;66.60;;;;;;4970964;28;90141;-38
2023/10/18 13:05:43;;;;;;;;;;;19.00;67.10;;;;;;4977187;28;89817;-38
2023/10/18 13:08:30;;;;;;;;;;;19.00;67.30;;;;;;4975086;28;88989;-38
2023/10/18 13:11:44;;;;;;;;;;;18.90;67.30;;;;;;4976250;28;89968;-39
2023/10/18 13:13:44;;;;;;;;;;;18.90;67.50;;;;;;4962715;28;89442;-38
2023/10/18 13:16:14;;;;;;;;;;;18.90;67.50;;;;;;4972965;28;97900;-38
2023/10/18 13:18:40;;;;;;;;;;;19.00;67.70;;;;;;4992724;28;89948;-38
2023/10/18 13:21:09;;;;;;;;;;;19.00;67.80;;;;;;4993706;28;93073;-38
2023/10/18 13:23:34;;;;;;;;;;;18.90;67.80;;;;;;4987439;28;93725;-38
2023/10/18 13:26:00;;;;;;;;;;;18.90;67.90;;;;;;4991991;28;90421;-38
2023/10/18 13:28:33;;;;;;;;;;;18.90;68.00;;;;;;4995754;28;89505;-38
2023/10/18 13:31:04;;;;;;;;;;;18.90;68.00;;;;;;4989945;28;90942;-38
2023/10/18 13:33:31;;;;;;;;;;;18.90;68.10;;;;;;4970628;28;93445;-39
2023/10/18 13:35:56;;;;;;;;;;;18.90;68.10;;;;;;4996108;28;89832;-39
2023/10/18 13:38:23;;;;;;;;;;;18.90;68.30;;;;;;4993932;28;89590;-38
2023/10/18 13:40:49;;;;;;;;;;;18.90;68.30;;;;;;4993478;28;91312;-38
2023/10/18 13:43:15;;;;;;;;;;;18.90;68.40;;;;;;4988186;28;90420;-39
2023/10/18 13:45:45;;;;;;;;;;;18.90;68.40;;;;;;4996668;28;90207;-38
2023/10/18 13:48:11;;;;;;;;;;;18.90;68.50;;;;;;4994120;28;90209;-38
2023/10/18 13:50:37;;;;;;;;;;;18.90;68.60;;;;;;4998784;28;90899;-38
2023/10/18 13:53:03;;;;;;;;;;;18.90;68.60;;;;;;4994251;28;90195;-38
2023/10/18 13:55:29;;;;;;;;;;;18.90;68.70;;;;;;4995527;28;90496;-38
2023/10/18 13:57:55;;;;;;;;;;;18.90;68.70;;;;;;4994138;28;88753;-38
2023/10/18 14:00:22;;;;;;;;;;;18.80;68.70;;;;;;4996889;28;89919;-39
2023/10/18 14:02:48;;;;;;;;;;;18.80;68.70;;;;;;4991512;28;89494;-38
2023/10/18 14:05:13;;;;;;;;;;;18.90;69.50;;;;;;4992232;28;90392;-39
2023/10/18 14:07:39;;;;;;;;;;;19.00;69.10;;;;;;5000457;28;89433;-38
2023/10/18 14:10:28;;;;;;;;;;;19.10;69.20;;;;;;4992408;28;89886;-38
2023/10/18 14:12:53;;;;;;;;;;;19.20;69.70;;;;;;4993316;28;90663;-38
2023/10/18 14:15:22;;;;;;;;;;;19.20;70.50;;;;;;4986339;28;89663;-38
2023/10/18 14:17:52;;;;;;;;;;;19.20;70.40;;;;;;4988801;28;90102;-38
2023/10/18 14:20:24;;;;;;;;;;;19.20;70.30;;;;;;4994235;28;91239;-37
2023/10/18 14:22:53;;;;;;;;;;;19.30;70.60;;;;;;4993286;28;89191;-38
2023/10/18 14:25:19;;;;;;;;;;;19.30;71.40;;;;;;4998059;28;89620;-38
2023/10/18 14:27:45;;;;;;;;;;;19.30;71.80;;;;;;4991291;28;89555;-38
2023/10/18 14:30:12;;;;;;;;;;;19.30;72.20;;;;;;4992200;28;94148;-39
2023/10/18 14:32:39;;;;;;;;;;;19.40;72.20;;;;;;4980018;28;91711;-40
2023/10/18 14:35:06;;;;;;;;;;;19.30;71.20;;;;;;4996497;28;89937;-40
2023/10/18 14:37:32;;;;;;;;;;;19.30;70.60;;;;;;4996084;28;89577;-40
2023/10/18 14:39:58;;;;;;;;;;;19.30;69.70;;;;;;4992950;28;90431;-41
2023/10/18 14:42:28;;;;;;;;;;;19.30;70.30;;;;;;4992516;28;91045;-42
2023/10/18 14:44:54;;;;;;;;;;;19.30;70.80;;;;;;4998780;28;90396;-40
2023/10/18 14:47:20;;;;;;;;;;;19.40;71.70;;;;;;4996651;28;88617;-42
2023/10/18 14:49:46;;;;;;;;;;;19.40;71.80;;;;;;4998400;28;90124;-41
2023/10/18 14:52:12;;;;;;;;;;;19.40;72.00;;;;;;5001967;28;89938;-41
2023/10/18 14:54:41;;;;;;;;;;;19.40;72.10;;;;;;4996767;28;91872;-41
2023/10/18 14:57:07;;;;;;;;;;;19.40;72.10;;;;;;5003676;28;89645;-42
2023/10/18 14:59:33;;;;;;;;;;;19.40;72.20;;;;;;4993727;28;90233;-42
2023/10/18 15:01:59;;;;;;;;;;;19.40;72.30;;;;;;4997264;28;89389;-42
2023/10/18 15:04:24;;;;;;;;;;;19.40;72.40;;;;;;4992063;28;93406;-41
2023/10/18 15:06:50;;;;;;;;;;;19.40;72.10;;;;;;4989752;28;89507;-40
2023/10/18 15:09:16;;;;;;;;;;;19.40;71.80;;;;;;4995576;28;89928;-43
2023/10/18 15:11:42;;;;;;;;;;;19.40;72.30;;;;;;4988907;28;90829;-41
2023/10/18 15:14:11;;;;;;;;;;;19.40;72.50;;;;;;4989895;28;90415;-40
2023/10/18 15:16:37;;;;;;;;;;;19.40;72.60;;;;;;4987856;28;91382;-39
2023/10/18 15:19:05;;;;;;;;;;;19.40;72.60;;;;;;4989055;28;90708;-42
2023/10/18 15:21:31;;;;;;;;;;;19.40;72.90;;;;;;4988692;28;91597;-40
2023/10/18 15:23:57;;;;;;;;;;;19.40;72.80;;;;;;4991747;28;89872;-44
2023/10/18 15:26:29;;;;;;;;;;;19.40;73.00;;;;;;4996707;28;90538;-39